»·PEaware :: N307JA KMHV-KSBD

N307JA :: KMHV-KSBD

FLIGHT INFORMATION

Flight Status: Arrived
Operator: Privately registered:
United States
More flights under this callsign
Pilot: Anonymous 43072 (43072)
Aircraft: MOONEY M-20 201 202 205 220 ATS MSE
(M20P)
More flights by this aircraft type
Origin: KMHV Mojave
United States
Destination: KSBD San Bernardino Intl
United States
More flights between these airports :: More routes between these airports
Route:
File this flight plan on PilotEdge
Remarks:
Altitude:
(Current/Filed)
9,500ft
Speed:
(Current/Filed)
170kts
Departed: 13-Mar-23 09:55 AM
Arrived: 13-Mar-23 10:39 AM
Distance/Time
Traveled:
73nm/0:44
Distance/Time
To Go:
Arrived

Flight Plot

Page will automatically refresh every two minutes.

Flight plan parsing failed; only flown route is shown


Map Options




Map Legend


Flown Route
Filed Route
Departure Airport
Arrival Airport
Navaid (VOR, NDB)
Fix

Horizontal Profiles

Position Reports

Time Latitude Longitude Heading Altitude Ground
Speed
13-Mar-23 09:46 35.057254 -118.149825 94 2752ft 0kts
13-Mar-23 09:47 35.057254 -118.149825 94 2752ft 0kts
13-Mar-23 09:48 35.057254 -118.149825 94 2752ft 0kts
13-Mar-23 09:49 35.057626 -118.147172 91 2748ft 15kts
13-Mar-23 09:50 35.058315 -118.142554 359 2739ft 0kts
13-Mar-23 09:51 35.058315 -118.142554 359 2739ft 0kts
13-Mar-23 09:52 35.058315 -118.142554 359 2739ft 0kts
13-Mar-23 09:53 35.059194 -118.142939 272 2740ft 12kts
13-Mar-23 09:54 35.058812 -118.166545 269 3257ft 88kts
13-Mar-23 09:55 35.041010 -118.187169 175 4367ft 121kts
13-Mar-23 09:56 35.008770 -118.171025 153 5540ft 120kts
13-Mar-23 09:57 34.976465 -118.151977 158 6412ft 133kts
13-Mar-23 09:58 34.943261 -118.134424 191 7355ft 134kts
13-Mar-23 09:59 34.907450 -118.140226 190 8346ft 135kts
13-Mar-23 10:00 34.872656 -118.132514 181 9432ft 131kts
13-Mar-23 10:01 34.831326 -118.120741 173 9723ft 165kts
13-Mar-23 10:02 34.784030 -118.101283 170 9446ft 174kts
13-Mar-23 10:03 34.737672 -118.086526 175 9431ft 172kts
13-Mar-23 10:04 34.691139 -118.077159 178 9474ft 169kts
13-Mar-23 10:05 34.644547 -118.067682 174 9503ft 171kts
13-Mar-23 10:06 34.619078 -118.021976 80 9466ft 179kts
13-Mar-23 10:07 34.623581 -117.961733 82 9709ft 179kts
13-Mar-23 10:08 34.620263 -117.900350 99 9813ft 182kts
13-Mar-23 10:09 34.608434 -117.840329 101 10140ft 180kts
13-Mar-23 10:10 34.598160 -117.785547 96 10834ft 167kts
13-Mar-23 10:11 34.591038 -117.732904 109 11498ft 163kts
13-Mar-23 10:12 34.574857 -117.676814 107 11494ft 185kts
13-Mar-23 10:13 34.554597 -117.619138 121 11599ft 185kts
13-Mar-23 10:14 34.518224 -117.576431 143 11614ft 185kts
13-Mar-23 10:15 34.478561 -117.537025 146 11662ft 184kts
13-Mar-23 10:16 34.439243 -117.497588 147 11782ft 182kts
13-Mar-23 10:17 34.397849 -117.461885 151 11795ft 183kts
13-Mar-23 10:18 34.372419 -117.407805 102 11594ft 189kts
13-Mar-23 10:19 34.356545 -117.346023 104 11146ft 204kts
13-Mar-23 10:20 34.346436 -117.276695 90 10234ft 211kts
13-Mar-23 10:21 34.340159 -117.211925 93 9791ft 194kts
13-Mar-23 10:22 34.337460 -117.148317 95 9221ft 187kts
13-Mar-23 10:23 34.314341 -117.094280 160 8435ft 187kts
13-Mar-23 10:24 34.269827 -117.095535 174 9308ft 169kts
13-Mar-23 10:25 34.219055 -117.079212 198 8705ft 203kts
13-Mar-23 10:26 34.172980 -117.103927 193 8104ft 162kts
13-Mar-23 10:27 34.123349 -117.097566 186 7018ft 176kts
13-Mar-23 10:28 34.076013 -117.099980 215 6220ft 173kts
13-Mar-23 10:29 34.090873 -117.125393 31 5459ft 161kts
13-Mar-23 10:30 34.079391 -117.085761 189 4723ft 168kts
13-Mar-23 10:31 34.080068 -117.122070 341 3743ft 174kts
13-Mar-23 10:32 34.108074 -117.148251 247 3203ft 159kts
13-Mar-23 10:33 34.089958 -117.194923 260 2198ft 152kts
13-Mar-23 10:34 34.075955 -117.241235 249 2038ft 146kts
13-Mar-23 10:35 34.062253 -117.282600 261 1832ft 109kts
13-Mar-23 10:36 34.078748 -117.294339 45 1880ft 99kts
13-Mar-23 10:37 34.087825 -117.259755 68 1281ft 99kts
13-Mar-23 10:38 34.094707 -117.237150 66 1120ft 36kts
13-Mar-23 10:39 34.096190 -117.236343 331 1124ft 0kts
13-Mar-23 10:40 34.096885 -117.235916 76 1126ft 12kts
13-Mar-23 10:41 34.098461 -117.230682 69 1137ft 17kts
13-Mar-23 10:42 34.100530 -117.227296 27 1145ft 0kts
13-Mar-23 10:43 34.100530 -117.227296 27 1145ft 0kts
13-Mar-23 10:44 34.100530 -117.227296 27 1145ft 0kts

Navigation Log

Ident Type
Flight plan parsing failed, navigation log unavailable